Time;durP1;ratioP1;P1;durP2;ratioP2;P2;SDS_P1;SDS_P2;PMS_P1;PMS_P2;Temp;Humidity;BMP_temperature;BMP_pressure;BME280_temperature;BME280_humidity;BME280_pressure;Samples;Min_cycle;Max_cycle;Signal;HPM_P1;HPM_P2
2023/08/18 00:00:46;;;;;;;19.42;4.55;;;19.70;99.90;;;;;;5065365;28;20060;-60
2023/08/18 00:03:13;;;;;;;13.77;4.65;;;19.70;99.90;;;;;;5041927;28;20052;-60
2023/08/18 00:05:40;;;;;;;14.05;4.38;;;19.70;99.90;;;;;;5065903;28;20495;-60
2023/08/18 00:08:07;;;;;;;16.52;5.30;;;19.70;99.90;;;;;;5055642;28;20470;-60
2023/08/18 00:10:34;;;;;;;21.05;4.90;;;19.70;99.90;;;;;;5060742;28;20637;-60
2023/08/18 00:13:01;;;;;;;17.98;4.90;;;19.70;99.90;;;;;;5066116;28;20415;-60
2023/08/18 00:15:28;;;;;;;18.40;4.60;;;19.70;99.90;;;;;;5061749;28;20143;-60
2023/08/18 00:17:55;;;;;;;12.80;4.03;;;19.70;99.90;;;;;;5057298;28;20087;-61
2023/08/18 00:20:22;;;;;;;14.65;4.65;;;19.70;99.90;;;;;;5065030;28;20051;-60
2023/08/18 00:22:49;;;;;;;16.17;4.07;;;19.70;99.90;;;;;;5059916;28;20091;-60
2023/08/18 00:25:16;;;;;;;16.75;3.83;;;19.70;99.90;;;;;;5058871;28;20080;-60
2023/08/18 00:27:43;;;;;;;13.63;4.40;;;19.70;99.90;;;;;;5051105;28;20053;-60
2023/08/18 00:30:10;;;;;;;19.40;4.70;;;19.70;99.90;;;;;;5057412;28;20090;-61
2023/08/18 00:32:37;;;;;;;18.05;4.32;;;19.70;99.90;;;;;;5063570;28;20059;-60
2023/08/18 00:35:06;;;;;;;15.98;5.22;;;19.70;99.90;;;;;;5055561;28;20064;-60
2023/08/18 00:37:33;;;;;;;21.00;4.38;;;19.70;99.90;;;;;;5059496;28;20644;-61
2023/08/18 00:40:00;;;;;;;16.02;4.25;;;19.70;99.90;;;;;;5055466;28;20041;-60
2023/08/18 00:42:27;;;;;;;17.48;4.22;;;19.70;99.90;;;;;;5058060;28;20049;-60
2023/08/18 00:44:54;;;;;;;14.98;3.58;;;19.70;99.90;;;;;;5058084;28;20045;-60
2023/08/18 00:47:20;;;;;;;17.75;4.30;;;19.80;99.90;;;;;;5064161;28;20049;-60
2023/08/18 00:49:47;;;;;;;14.48;4.05;;;19.80;99.90;;;;;;5067445;28;20173;-61
2023/08/18 00:52:17;;;;;;;16.00;4.15;;;19.80;99.90;;;;;;5026204;28;20044;-60
2023/08/18 00:54:47;;;;;;;13.52;4.00;;;19.80;99.90;;;;;;5041287;28;20102;-60
2023/08/18 00:57:14;;;;;;;15.18;4.93;;;19.80;99.90;;;;;;5043787;28;20060;-60
2023/08/18 00:59:41;;;;;;;13.07;3.38;;;19.80;99.90;;;;;;5068054;28;20110;-60
2023/08/18 01:02:08;;;;;;;15.90;4.40;;;19.80;99.90;;;;;;5040285;28;20052;-60
2023/08/18 01:04:35;;;;;;;12.63;4.15;;;19.70;99.90;;;;;;5063610;28;20207;-60
2023/08/18 01:07:02;;;;;;;23.13;4.88;;;19.70;99.90;;;;;;5066975;28;20045;-60
2023/08/18 01:09:28;;;;;;;20.10;4.35;;;19.70;99.90;;;;;;5049247;28;20051;-61
2023/08/18 01:12:02;;;;;;;15.45;4.18;;;19.70;99.90;;;;;;5045158;28;20045;-60
2023/08/18 01:14:52;;;;;;;;;;;19.70;99.90;;;;;;5031031;28;20102;-60
2023/08/18 01:17:25;;;;;;;17.55;4.10;;;19.70;99.90;;;;;;5036670;28;19967;-60
2023/08/18 01:19:52;;;;;;;14.75;4.75;;;19.80;99.90;;;;;;5033676;28;20052;-60
2023/08/18 01:22:19;;;;;;;24.85;4.88;;;19.80;99.90;;;;;;5050429;28;20444;-61
2023/08/18 01:24:46;;;;;;;18.52;4.57;;;19.80;99.90;;;;;;5067458;28;20060;-60
2023/08/18 01:27:12;;;;;;;19.33;6.22;;;19.80;99.90;;;;;;4715866;28;10000374;-62
2023/08/18 01:29:39;;;;;;;20.88;5.47;;;19.80;99.90;;;;;;5065552;28;20045;-60
2023/08/18 01:32:06;;;;;;;21.00;7.22;;;19.70;99.90;;;;;;5049912;28;20078;-60
2023/08/18 01:34:33;;;;;;;20.65;6.53;;;19.80;99.90;;;;;;5049833;28;20052;-61
2023/08/18 01:37:00;;;;;;;17.20;5.70;;;19.70;99.90;;;;;;5067519;28;20170;-60
2023/08/18 01:39:27;;;;;;;18.67;5.40;;;19.80;99.90;;;;;;5032149;28;20093;-60
2023/08/18 01:41:54;;;;;;;17.08;5.55;;;19.80;99.90;;;;;;5050113;28;20048;-61
2023/08/18 01:44:20;;;;;;;20.45;6.32;;;19.80;99.90;;;;;;5049348;28;20090;-59
2023/08/18 01:46:47;;;;;;;21.20;7.18;;;19.80;99.90;;;;;;5066740;28;20050;-61
2023/08/18 01:49:14;;;;;;;17.27;6.07;;;19.70;99.90;;;;;;5067101;28;20044;-60
2023/08/18 01:51:41;;;;;;;19.58;7.63;;;19.70;99.90;;;;;;5065408;28;20051;-61
2023/08/18 01:54:08;;;;;;;27.17;6.93;;;19.70;99.90;;;;;;5049428;28;20054;-60
2023/08/18 01:56:34;;;;;;;20.25;7.18;;;19.70;99.90;;;;;;5067860;28;20056;-60
2023/08/18 01:59:03;;;;;;;29.88;7.97;;;19.70;99.90;;;;;;5067208;28;20048;-60
2023/08/18 02:01:30;;;;;;;25.27;7.55;;;19.70;99.90;;;;;;5067717;28;20079;-61
2023/08/18 02:03:57;;;;;;;23.50;7.57;;;19.70;99.90;;;;;;5066933;28;20713;-60
2023/08/18 02:06:24;;;;;;;18.23;5.97;;;19.70;99.90;;;;;;5067185;28;20048;-60
2023/08/18 02:08:50;;;;;;;21.45;5.70;;;19.80;99.90;;;;;;5065299;28;20090;-60
2023/08/18 02:11:17;;;;;;;20.63;6.13;;;19.70;99.90;;;;;;5066928;28;20052;-61
2023/08/18 02:13:44;;;;;;;25.80;7.70;;;19.80;99.90;;;;;;5066098;28;20044;-60
2023/08/18 02:16:10;;;;;;;21.08;5.63;;;19.80;99.90;;;;;;5066834;28;20044;-62
2023/08/18 02:18:38;;;;;;;17.40;5.38;;;19.80;99.90;;;;;;5066557;28;20124;-61
2023/08/18 02:21:04;;;;;;;20.13;5.65;;;19.80;99.90;;;;;;5067125;28;20048;-59
2023/08/18 02:23:31;;;;;;;18.00;5.93;;;19.80;99.90;;;;;;5066981;28;20040;-60
2023/08/18 02:26:02;;;;;;;27.80;6.32;;;19.80;99.90;;;;;;5067007;28;20541;-60
2023/08/18 02:28:30;;;;;;;28.95;5.78;;;19.80;99.90;;;;;;5066404;28;20101;-60
2023/08/18 02:31:04;;;;;;;24.80;5.75;;;19.80;99.90;;;;;;5069746;28;20074;-60
2023/08/18 02:33:32;;;;;;;17.83;6.05;;;19.70;99.90;;;;;;5071213;28;20114;-59
2023/08/18 02:35:59;;;;;;;19.00;6.13;;;19.70;99.90;;;;;;5071112;28;20040;-60
2023/08/18 02:38:29;;;;;;;18.80;6.38;;;19.80;99.90;;;;;;5070797;28;20048;-61
2023/08/18 02:40:56;;;;;;;17.02;6.35;;;19.80;99.90;;;;;;5070384;28;20052;-60
2023/08/18 02:43:23;;;;;;;15.75;6.63;;;19.90;99.90;;;;;;5071172;28;20048;-60
2023/08/18 02:45:55;;;;;;;18.90;7.10;;;19.80;99.90;;;;;;5070146;28;20649;-60
2023/08/18 02:48:22;;;;;;;19.90;6.85;;;19.80;99.90;;;;;;5070570;28;20114;-60
2023/08/18 02:50:50;;;;;;;21.88;6.97;;;19.80;99.90;;;;;;5070612;28;20084;-60
2023/08/18 02:53:16;;;;;;;19.00;7.57;;;19.80;99.90;;;;;;5071225;28;20048;-60
2023/08/18 02:55:43;;;;;;;26.85;7.40;;;19.80;99.90;;;;;;5069964;28;20105;-59
2023/08/18 02:58:10;;;;;;;21.52;8.40;;;19.80;99.90;;;;;;5067970;28;20461;-60
2023/08/18 03:00:37;;;;;;;20.08;6.88;;;19.80;99.90;;;;;;5070650;28;20101;-60
2023/08/18 03:03:04;;;;;;;18.75;7.22;;;19.70;99.90;;;;;;5071281;28;20071;-60
2023/08/18 03:05:31;;;;;;;15.95;7.70;;;19.70;99.90;;;;;;5070121;28;20063;-60
2023/08/18 03:07:58;;;;;;;19.38;6.90;;;19.70;99.90;;;;;;5070059;28;20052;-60
2023/08/18 03:10:24;;;;;;;20.23;7.95;;;19.70;99.90;;;;;;5070269;28;20044;-61
2023/08/18 03:12:51;;;;;;;21.60;7.97;;;19.70;99.90;;;;;;5070603;28;20044;-60
2023/08/18 03:15:18;;;;;;;19.77;8.00;;;19.70;99.90;;;;;;5052121;28;20106;-62
2023/08/18 03:17:45;;;;;;;16.73;7.70;;;19.70;99.90;;;;;;5070480;28;20044;-60
2023/08/18 03:20:12;;;;;;;22.02;10.55;;;19.60;99.90;;;;;;5070284;28;20040;-59
2023/08/18 03:22:39;;;;;;;21.38;8.23;;;19.60;99.90;;;;;;5070352;28;20065;-60
2023/08/18 03:25:06;;;;;;;21.75;8.48;;;19.60;99.90;;;;;;5069942;28;20044;-61
2023/08/18 03:27:33;;;;;;;20.08;8.60;;;19.60;99.90;;;;;;5070238;28;20044;-60
2023/08/18 03:30:00;;;;;;;21.20;10.00;;;19.60;99.90;;;;;;5070304;28;20044;-61
2023/08/18 03:32:27;;;;;;;24.00;10.13;;;19.50;99.90;;;;;;5069884;28;20056;-61
2023/08/18 03:34:54;;;;;;;24.85;9.95;;;19.50;99.90;;;;;;5070143;28;20503;-60
2023/08/18 03:37:21;;;;;;;21.35;9.35;;;19.50;99.90;;;;;;5069715;28;20057;-61
2023/08/18 03:39:48;;;;;;;17.58;10.07;;;19.50;99.90;;;;;;5069989;28;20653;-61
2023/08/18 03:42:14;;;;;;;17.48;8.85;;;19.50;99.90;;;;;;5067250;28;20106;-60
2023/08/18 03:44:41;;;;;;;22.00;8.98;;;19.40;99.90;;;;;;5069787;28;20066;-61
2023/08/18 03:47:08;;;;;;;16.60;8.63;;;19.50;99.90;;;;;;5069839;28;20048;-62
2023/08/18 03:49:35;;;;;;;23.13;9.90;;;19.60;99.90;;;;;;5067300;28;20174;-61
2023/08/18 03:52:02;;;;;;;15.82;8.52;;;19.50;99.90;;;;;;5068191;28;20059;-60
2023/08/18 03:54:29;;;;;;;26.45;10.52;;;19.60;99.90;;;;;;5068903;28;20480;-60
2023/08/18 03:56:56;;;;;;;16.05;8.77;;;19.60;99.90;;;;;;5069090;28;20094;-60
2023/08/18 03:59:22;;;;;;;23.20;9.32;;;19.60;99.90;;;;;;5066540;28;20094;-61
2023/08/18 04:01:49;;;;;;;21.20;9.88;;;19.50;99.90;;;;;;5069244;28;20044;-61
2023/08/18 04:04:16;;;;;;;22.95;11.25;;;19.50;99.90;;;;;;5061122;28;20553;-61
2023/08/18 04:06:43;;;;;;;21.38;9.57;;;19.50;99.90;;;;;;5052603;28;20044;-61
2023/08/18 04:09:17;;;;;;;24.45;9.00;;;19.50;99.90;;;;;;5068674;28;20040;-58
2023/08/18 04:11:44;;;;;;;24.95;11.82;;;19.50;99.90;;;;;;5069415;28;20048;-61
2023/08/18 04:14:11;;;;;;;24.80;11.77;;;19.60;99.90;;;;;;5069578;28;20051;-62
2023/08/18 04:16:38;;;;;;;30.67;11.82;;;19.60;99.90;;;;;;5069308;28;20055;-60
2023/08/18 04:19:05;;;;;;;22.00;12.52;;;19.60;99.90;;;;;;5068835;28;20051;-61
2023/08/18 04:21:32;;;;;;;29.75;13.50;;;19.50;99.90;;;;;;5052051;28;20048;-60
2023/08/18 04:24:00;;;;;;;20.95;13.63;;;19.50;99.90;;;;;;5065074;28;20167;-61
2023/08/18 04:26:28;;;;;;;23.98;14.02;;;19.50;99.90;;;;;;5069182;28;20044;-60
2023/08/18 04:28:54;;;;;;;25.60;14.10;;;19.50;99.90;;;;;;5068604;28;20090;-60
2023/08/18 04:31:22;;;;;;;29.25;15.65;;;19.50;99.90;;;;;;5069227;28;20121;-61
2023/08/18 04:33:48;;;;;;;30.83;18.90;;;19.50;99.90;;;;;;5068660;28;20656;-59
2023/08/18 04:36:15;;;;;;;26.17;17.65;;;19.50;99.90;;;;;;5069019;28;20484;-60
2023/08/18 04:38:42;;;;;;;31.38;18.60;;;19.50;99.90;;;;;;5068327;28;20049;-59
2023/08/18 04:41:09;;;;;;;29.73;18.48;;;19.40;99.90;;;;;;5058720;28;20135;-59
2023/08/18 04:43:36;;;;;;;29.70;18.15;;;19.50;99.90;;;;;;5068801;28;20045;-60
2023/08/18 04:46:03;;;;;;;32.13;21.50;;;19.40;99.90;;;;;;5069216;28;20044;-59
2023/08/18 04:48:30;;;;;;;27.77;21.20;;;19.40;99.90;;;;;;5068289;28;20080;-59
2023/08/18 04:50:56;;;;;;;33.15;21.00;;;19.40;99.90;;;;;;5068581;28;20044;-60
2023/08/18 04:53:23;;;;;;;30.08;21.95;;;19.40;99.90;;;;;;5065871;28;20522;-60
2023/08/18 04:55:50;;;;;;;36.13;21.92;;;19.40;99.90;;;;;;5050153;28;20495;-60
2023/08/18 04:58:17;;;;;;;37.17;23.42;;;19.30;99.90;;;;;;5068056;28;20056;-59
2023/08/18 05:00:44;;;;;;;35.22;22.60;;;19.30;99.90;;;;;;5067566;28;20594;-59
2023/08/18 05:03:11;;;;;;;39.70;25.33;;;19.30;99.90;;;;;;5065370;28;20534;-60
2023/08/18 05:05:40;;;;;;;37.30;24.58;;;19.30;99.90;;;;;;5067871;28;20055;-60
2023/08/18 05:08:06;;;;;;;40.67;26.42;;;19.20;99.90;;;;;;5068142;28;20113;-60
2023/08/18 05:10:33;;;;;;;36.17;24.13;;;19.30;99.90;;;;;;5068021;28;20128;-59
2023/08/18 05:13:00;;;;;;;36.03;25.58;;;19.30;99.90;;;;;;5068272;28;20573;-60
2023/08/18 05:15:29;;;;;;;38.83;23.45;;;19.30;99.90;;;;;;5067599;28;20103;-60
2023/08/18 05:17:55;;;;;;;39.28;22.77;;;19.30;99.90;;;;;;5068178;28;20048;-60
2023/08/18 05:20:22;;;;;;;39.35;22.73;;;19.30;99.90;;;;;;5067896;28;20566;-59
2023/08/18 05:22:49;;;;;;;31.63;21.55;;;19.30;99.90;;;;;;5068163;28;20094;-61
2023/08/18 05:25:16;;;;;;;40.72;21.55;;;19.30;99.90;;;;;;5067768;28;20044;-60
2023/08/18 05:27:43;;;;;;;34.05;20.48;;;19.30;99.90;;;;;;5067643;28;20048;-60
2023/08/18 05:30:10;;;;;;;37.50;20.25;;;19.40;99.90;;;;;;5049883;28;20110;-60
2023/08/18 05:32:37;;;;;;;28.95;18.92;;;19.50;99.90;;;;;;5068005;28;20044;-59
2023/08/18 05:35:04;;;;;;;29.33;18.15;;;19.50;99.90;;;;;;5061662;28;20040;-60
2023/08/18 05:37:31;;;;;;;29.70;18.55;;;19.50;99.90;;;;;;5067733;28;20099;-60
2023/08/18 05:39:57;;;;;;;29.77;17.52;;;19.50;99.90;;;;;;5067646;28;20040;-60
2023/08/18 05:42:24;;;;;;;30.13;17.90;;;19.50;99.90;;;;;;5067458;28;20048;-61
2023/08/18 05:44:51;;;;;;;27.48;15.48;;;19.50;99.90;;;;;;5067441;28;20858;-60
2023/08/18 05:47:18;;;;;;;18.88;14.38;;;19.60;99.90;;;;;;5066929;28;20055;-61
2023/08/18 05:49:44;;;;;;;29.48;15.18;;;19.50;99.90;;;;;;5057628;28;20040;-59
2023/08/18 05:52:11;;;;;;;30.10;15.90;;;19.50;99.90;;;;;;5067268;28;20041;-60
2023/08/18 05:54:38;;;;;;;24.45;14.77;;;19.50;99.90;;;;;;5067518;28;20044;-61
2023/08/18 05:57:05;;;;;;;24.50;15.63;;;19.50;99.90;;;;;;5064234;28;20049;-61
2023/08/18 05:59:32;;;;;;;32.88;15.95;;;19.60;99.90;;;;;;5055320;28;20048;-61
2023/08/18 06:01:59;;;;;;;20.85;14.60;;;19.60;99.90;;;;;;5062116;28;20472;-61
2023/08/18 06:04:25;;;;;;;26.55;15.38;;;19.60;99.90;;;;;;5066222;28;20098;-61
2023/08/18 06:06:52;;;;;;;30.60;13.77;;;19.60;99.90;;;;;;5067056;28;20040;-60
2023/08/18 06:09:19;;;;;;;25.48;15.57;;;19.70;99.90;;;;;;5067469;28;20107;-61
2023/08/18 06:11:46;;;;;;;25.90;14.30;;;19.70;99.90;;;;;;5066978;28;20091;-61
2023/08/18 06:14:13;;;;;;;24.88;14.82;;;19.60;99.90;;;;;;5064585;28;20118;-60
2023/08/18 06:16:40;;;;;;;30.42;14.32;;;19.60;99.90;;;;;;5066506;28;20078;-61
2023/08/18 06:19:08;;;;;;;23.58;13.05;;;19.60;99.90;;;;;;5066483;28;20045;-60
2023/08/18 06:21:34;;;;;;;24.17;13.63;;;19.60;99.90;;;;;;5062132;28;20052;-60
2023/08/18 06:24:01;;;;;;;26.23;14.70;;;19.60;99.90;;;;;;5067007;28;20461;-61
2023/08/18 06:26:28;;;;;;;17.77;11.85;;;19.60;99.90;;;;;;5066132;28;20040;-61
2023/08/18 06:28:55;;;;;;;30.10;12.63;;;19.70;99.90;;;;;;5066632;28;20087;-61
2023/08/18 06:31:22;;;;;;;24.63;14.13;;;19.70;99.90;;;;;;5066944;28;20548;-60
2023/08/18 06:33:49;;;;;;;19.27;12.18;;;19.80;99.90;;;;;;5066980;28;20392;-60
2023/08/18 06:36:16;;;;;;;20.60;12.52;;;19.80;99.90;;;;;;5066296;28;20459;-61
2023/08/18 06:38:43;;;;;;;16.92;11.63;;;19.80;99.90;;;;;;5066135;28;20045;-61
2023/08/18 06:41:09;;;;;;;18.90;11.88;;;19.80;99.90;;;;;;5066238;28;20044;-60
2023/08/18 06:43:36;;;;;;;15.15;10.75;;;19.80;99.90;;;;;;5065721;28;20099;-62
2023/08/18 06:46:04;;;;;;;19.75;11.82;;;19.90;99.90;;;;;;5055384;28;20182;-61
2023/08/18 06:48:31;;;;;;;22.48;10.57;;;19.90;99.90;;;;;;5061144;28;20055;-61
2023/08/18 06:50:58;;;;;;;22.25;10.25;;;20.00;99.90;;;;;;5066221;28;20040;-60
2023/08/18 06:53:24;;;;;;;23.42;9.48;;;20.10;99.90;;;;;;4710492;28;10000158;-62
2023/08/18 06:55:51;;;;;;;15.57;9.32;;;20.10;99.90;;;;;;5059210;28;20053;-64
2023/08/18 06:58:30;;;;;;;16.88;10.35;;;20.10;99.90;;;;;;5063128;28;20102;-61
2023/08/18 07:00:57;;;;;;;13.88;10.15;;;20.20;99.90;;;;;;5049767;28;20049;-62
2023/08/18 07:03:24;;;;;;;19.08;10.18;;;20.10;99.90;;;;;;5054989;28;20131;-62
2023/08/18 07:05:51;;;;;;;17.17;10.82;;;20.20;99.90;;;;;;5063538;28;20152;-62
2023/08/18 07:08:18;;;;;;;19.42;11.65;;;20.20;99.90;;;;;;5028431;28;20052;-61
2023/08/18 07:10:44;;;;;;;16.38;11.23;;;20.20;99.90;;;;;;5060569;28;20446;-61
2023/08/18 07:13:11;;;;;;;19.33;10.57;;;20.20;99.90;;;;;;5062922;28;20117;-60
2023/08/18 07:15:38;;;;;;;17.35;10.27;;;20.20;99.90;;;;;;5059952;28;20036;-60
2023/08/18 07:18:05;;;;;;;18.05;11.05;;;20.20;99.90;;;;;;5063142;28;20048;-60
2023/08/18 07:20:32;;;;;;;15.02;9.80;;;20.30;99.90;;;;;;5061190;28;20150;-60
2023/08/18 07:22:59;;;;;;;19.77;10.50;;;20.30;99.90;;;;;;5064863;28;20585;-60
2023/08/18 07:25:25;;;;;;;15.07;10.55;;;20.30;99.90;;;;;;5059858;28;20044;-60
2023/08/18 07:27:52;;;;;;;19.27;11.18;;;20.30;99.90;;;;;;5049197;28;20141;-60
2023/08/18 07:30:19;;;;;;;17.67;11.88;;;20.30;99.90;;;;;;5055777;28;20084;-60
2023/08/18 07:32:46;;;;;;;18.83;12.35;;;20.30;99.90;;;;;;5063517;28;20784;-59
2023/08/18 07:35:14;;;;;;;21.55;12.13;;;20.30;99.90;;;;;;5060236;28;20048;-60
2023/08/18 07:37:41;;;;;;;21.15;12.68;;;20.20;99.90;;;;;;5043027;28;20056;-60
2023/08/18 07:40:11;;;;;;;22.70;12.25;;;20.20;99.90;;;;;;5065778;28;20056;-60
2023/08/18 07:42:38;;;;;;;21.65;11.73;;;20.30;99.90;;;;;;5061118;28;20209;-59
2023/08/18 07:45:06;;;;;;;19.92;11.75;;;20.30;99.90;;;;;;5066244;28;20123;-59
2023/08/18 07:47:34;;;;;;;21.33;12.25;;;20.30;99.90;;;;;;5066345;28;20056;-60
2023/08/18 07:50:02;;;;;;;17.27;10.52;;;20.30;99.90;;;;;;5066218;28;20418;-59
2023/08/18 07:52:28;;;;;;;17.98;11.38;;;20.30;99.90;;;;;;5061000;28;20055;-60
2023/08/18 07:54:56;;;;;;;20.30;11.43;;;20.40;99.90;;;;;;5065549;28;20048;-59
2023/08/18 07:57:22;;;;;;;21.27;12.57;;;20.30;99.90;;;;;;5054542;28;20589;-61
2023/08/18 07:59:49;;;;;;;19.13;11.68;;;20.40;99.90;;;;;;5057909;28;20056;-60
2023/08/18 08:02:16;;;;;;;17.80;10.60;;;20.40;99.90;;;;;;5062806;28;20052;-60
2023/08/18 08:04:55;;;;;;;14.38;9.63;;;20.40;99.90;;;;;;5066054;28;20397;-60
2023/08/18 08:07:22;;;;;;;19.75;10.00;;;20.40;99.90;;;;;;5060912;28;20055;-60
2023/08/18 08:09:49;;;;;;;18.48;11.05;;;20.40;99.90;;;;;;5058739;28;20052;-60
2023/08/18 08:12:16;;;;;;;18.20;11.18;;;20.40;99.90;;;;;;5064209;28;20102;-60
2023/08/18 08:14:46;;;;;;;18.90;13.07;;;20.50;99.90;;;;;;5048030;28;20060;-61
2023/08/18 08:17:13;;;;;;;21.73;13.05;;;20.40;99.90;;;;;;5065301;28;20053;-60
2023/08/18 08:19:39;;;;;;;21.55;12.48;;;20.40;99.90;;;;;;5065535;28;20056;-59
2023/08/18 08:22:09;;;;;;;20.23;13.15;;;20.40;99.90;;;;;;5064731;28;20622;-59
2023/08/18 08:24:36;;;;;;;20.42;13.80;;;20.40;99.90;;;;;;5065264;28;20090;-60
2023/08/18 08:27:04;;;;;;;19.77;14.05;;;20.40;99.90;;;;;;5060744;28;20088;-59
2023/08/18 08:29:31;;;;;;;21.98;14.13;;;20.40;99.90;;;;;;5061198;28;20185;-59
2023/08/18 08:31:58;;;;;;;23.60;14.95;;;20.40;99.90;;;;;;5062438;28;20109;-58
2023/08/18 08:34:24;;;;;;;29.08;15.75;;;20.40;99.90;;;;;;5065670;28;20087;-58
2023/08/18 08:36:51;;;;;;;24.27;15.18;;;20.40;99.90;;;;;;5065097;28;20048;-59
2023/08/18 08:39:18;;;;;;;21.50;15.13;;;20.40;99.90;;;;;;5063751;28;20550;-59
2023/08/18 08:41:45;;;;;;;20.48;14.50;;;20.50;99.90;;;;;;5061622;28;20576;-59
2023/08/18 08:44:12;;;;;;;23.50;16.00;;;20.50;99.90;;;;;;5061319;28;20052;-59
2023/08/18 08:46:40;;;;;;;22.55;16.48;;;20.40;99.90;;;;;;5046479;28;20106;-58
2023/08/18 08:49:07;;;;;;;29.60;17.23;;;20.40;99.90;;;;;;5017366;28;20135;-59
2023/08/18 08:51:37;;;;;;;30.75;18.58;;;20.40;99.90;;;;;;5034093;28;20056;-61
2023/08/18 08:54:05;;;;;;;33.75;19.75;;;20.30;99.90;;;;;;5045203;28;20071;-59
2023/08/18 08:56:32;;;;;;;38.72;20.42;;;20.30;99.90;;;;;;5048179;28;20114;-58
2023/08/18 08:58:59;;;;;;;36.35;21.90;;;20.20;99.90;;;;;;5047791;28;20506;-59
2023/08/18 09:01:26;;;;;;;31.27;21.38;;;20.10;99.90;;;;;;5061110;28;20680;-59
2023/08/18 09:03:53;;;;;;;41.70;22.00;;;20.10;99.90;;;;;;5063117;28;20079;-59
2023/08/18 09:06:20;;;;;;;34.13;20.52;;;20.00;99.90;;;;;;5039696;28;20105;-58
2023/08/18 09:08:46;;;;;;;41.92;23.73;;;20.00;99.90;;;;;;5067512;28;20103;-59
2023/08/18 09:11:14;;;;;;;42.67;22.45;;;20.00;99.90;;;;;;5067834;28;20051;-59
2023/08/18 09:13:41;;;;;;;42.25;21.83;;;20.00;99.90;;;;;;5067792;28;20538;-58
2023/08/18 09:16:08;;;;;;;37.33;21.40;;;20.00;99.90;;;;;;5049280;28;20565;-58
2023/08/18 09:18:35;;;;;;;43.58;21.85;;;20.10;99.90;;;;;;5066030;28;20121;-58
2023/08/18 09:21:04;;;;;;;32.10;20.05;;;20.00;99.90;;;;;;5047997;28;20185;-58
2023/08/18 09:23:31;;;;;;;29.55;19.27;;;20.00;99.90;;;;;;5065673;28;20051;-58
2023/08/18 09:25:58;;;;;;;39.40;21.85;;;20.00;99.90;;;;;;5048802;28;20048;-59
2023/08/18 09:28:25;;;;;;;41.85;20.92;;;20.10;99.90;;;;;;5065421;28;20415;-59
2023/08/18 09:30:52;;;;;;;29.83;18.85;;;20.10;99.90;;;;;;5064933;28;20044;-58
2023/08/18 09:33:25;;;;;;;31.38;21.02;;;20.10;99.90;;;;;;5065741;28;20047;-58
2023/08/18 09:35:58;;;;;;;39.13;23.08;;;20.10;99.90;;;;;;5067026;28;20580;-58
2023/08/18 09:38:27;;;;;;;37.00;19.80;;;20.00;99.90;;;;;;5066609;28;20076;-58
2023/08/18 09:41:03;;;;;;;33.30;19.42;;;20.10;99.90;;;;;;5067399;28;20037;-58
2023/08/18 09:43:29;;;;;;;43.13;23.00;;;20.10;99.90;;;;;;5067587;28;20055;-58
2023/08/18 09:45:57;;;;;;;37.35;22.48;;;20.10;99.90;;;;;;5049459;28;20478;-59
2023/08/18 09:48:26;;;;;;;36.80;22.70;;;20.10;99.90;;;;;;5048048;28;20036;-58
2023/08/18 09:50:53;;;;;;;39.33;23.40;;;20.10;99.90;;;;;;5067572;28;20044;-58
2023/08/18 09:53:21;;;;;;;36.15;23.05;;;20.20;99.90;;;;;;5049689;28;20078;-58
2023/08/18 09:55:48;;;;;;;31.48;21.40;;;20.20;99.90;;;;;;5067092;28;20626;-58
2023/08/18 09:58:33;;;;;;;42.53;21.40;;;20.30;99.90;;;;;;5049377;28;20048;-59
2023/08/18 10:00:59;;;;;;;41.97;24.20;;;20.30;99.90;;;;;;5067239;28;20502;-58
2023/08/18 10:03:26;;;;;;;31.20;21.02;;;20.40;99.90;;;;;;5033200;28;20121;-59
2023/08/18 10:05:54;;;;;;;38.03;23.52;;;20.40;99.90;;;;;;5049195;28;20539;-59
2023/08/18 10:08:24;;;;;;;31.20;20.45;;;20.50;99.90;;;;;;5067423;28;20053;-59
2023/08/18 10:10:50;;;;;;;32.45;21.55;;;20.40;99.90;;;;;;5057652;28;20052;-59
2023/08/18 10:13:17;;;;;;;31.48;20.17;;;20.40;99.90;;;;;;5066888;28;20088;-59
2023/08/18 10:15:44;;;;;;;40.97;22.83;;;20.40;99.90;;;;;;5049049;28;20044;-57
2023/08/18 10:18:11;;;;;;;38.50;21.42;;;20.40;99.90;;;;;;5049381;28;20049;-59
2023/08/18 10:20:51;;;;;;;34.33;21.38;;;20.50;99.90;;;;;;5048634;28;20578;-59
2023/08/18 10:23:18;;;;;;;35.90;21.38;;;20.50;99.90;;;;;;5049639;28;20045;-59
2023/08/18 10:25:48;;;;;;;27.70;19.55;;;20.60;99.90;;;;;;5066678;28;20040;-59
2023/08/18 10:28:19;;;;;;;34.72;20.42;;;20.70;99.90;;;;;;5067331;28;20052;-59
2023/08/18 10:30:51;;;;;;;33.22;20.90;;;20.80;99.90;;;;;;5065441;28;20044;-59
2023/08/18 10:33:27;;;;;;;27.58;19.52;;;20.80;99.90;;;;;;5066688;28;20138;-58
2023/08/18 10:35:58;;;;;;;27.15;19.15;;;20.80;99.90;;;;;;5048743;28;20450;-59
2023/08/18 10:38:28;;;;;;;29.67;19.95;;;20.90;99.90;;;;;;5067354;28;20044;-60
2023/08/18 10:40:55;;;;;;;33.72;21.63;;;20.90;99.90;;;;;;5066925;28;20080;-58
2023/08/18 10:43:24;;;;;;;24.50;19.02;;;21.00;99.90;;;;;;5067329;28;20044;-59
2023/08/18 10:45:52;;;;;;;32.00;20.13;;;21.10;99.90;;;;;;5048919;28;20570;-57
2023/08/18 10:48:19;;;;;;;32.63;20.40;;;21.10;99.90;;;;;;5058627;28;20132;-59
2023/08/18 10:50:47;;;;;;;26.42;20.42;;;21.10;99.90;;;;;;5067755;28;20095;-58
2023/08/18 10:53:15;;;;;;;30.95;21.30;;;21.10;99.90;;;;;;5070680;28;20487;-59
2023/08/18 10:55:45;;;;;;;29.95;21.70;;;21.20;99.90;;;;;;5051832;28;20064;-60
2023/08/18 10:58:14;;;;;;;31.08;21.85;;;21.30;99.90;;;;;;5070313;28;20067;-59
2023/08/18 11:00:41;;;;;;;40.25;22.45;;;21.30;99.90;;;;;;5070127;28;20423;-60
2023/08/18 11:03:08;;;;;;;30.27;22.95;;;21.30;99.90;;;;;;5069960;28;20514;-58
2023/08/18 11:05:35;;;;;;;40.17;23.00;;;21.30;99.90;;;;;;4718864;28;10000468;-59
2023/08/18 11:08:03;;;;;;;36.90;24.73;;;21.40;99.90;;;;;;5066733;28;20526;-60
2023/08/18 11:10:30;;;;;;;38.20;24.27;;;21.50;99.90;;;;;;5068406;28;20044;-58
2023/08/18 11:12:58;;;;;;;33.42;24.23;;;21.60;99.90;;;;;;5070272;28;20051;-58
2023/08/18 11:15:25;;;;;;;36.53;24.80;;;21.70;99.90;;;;;;5070332;28;20052;-60
2023/08/18 11:17:52;;;;;;;37.75;25.10;;;21.80;99.90;;;;;;5051593;28;20041;-60
2023/08/18 11:20:19;;;;;;;41.90;26.10;;;22.00;99.90;;;;;;5070139;28;20054;-58
2023/08/18 11:22:54;;;;;;;36.17;24.85;;;22.10;99.90;;;;;;5070365;28;20086;-59
2023/08/18 11:25:22;;;;;;;36.35;24.40;;;22.10;99.90;;;;;;5070246;28;20048;-58
2023/08/18 11:27:51;;;;;;;36.97;26.10;;;22.10;99.90;;;;;;5069746;28;20195;-59
2023/08/18 11:30:18;;;;;;;41.33;27.00;;;22.00;99.90;;;;;;5070171;28;20052;-59
2023/08/18 11:32:45;;;;;;;36.30;25.42;;;22.10;99.90;;;;;;5069449;28;20248;-59
2023/08/18 11:35:13;;;;;;;35.60;25.05;;;22.10;99.90;;;;;;5070388;28;20135;-59
2023/08/18 11:37:46;;;;;;;39.30;24.70;;;22.20;99.90;;;;;;5069729;28;20415;-59
2023/08/18 11:40:17;;;;;;;31.52;23.25;;;22.20;99.90;;;;;;5069731;28;20499;-58
2023/08/18 11:42:45;;;;;;;42.13;26.42;;;22.20;99.90;;;;;;5051735;28;20047;-59
2023/08/18 11:45:16;;;;;;;38.97;24.23;;;22.10;99.90;;;;;;5058526;28;20060;-59
2023/08/18 11:47:56;;;;;;;36.40;23.20;;;22.20;99.90;;;;;;5068496;28;20044;-59
2023/08/18 11:50:32;;;;;;;29.40;20.42;;;22.30;99.90;;;;;;5058641;28;20048;-59
2023/08/18 11:52:59;;;;;;;35.50;23.27;;;22.50;99.90;;;;;;5069666;28;20092;-58
2023/08/18 11:55:38;;;;;;;39.08;24.15;;;22.50;99.90;;;;;;5069485;28;20052;-59
2023/08/18 11:58:08;;;;;;;39.40;22.70;;;22.50;99.90;;;;;;5069295;28;20056;-58
2023/08/18 12:00:37;;;;;;;33.45;23.13;;;22.50;99.90;;;;;;5069862;28;20049;-59
2023/08/18 12:03:05;;;;;;;33.28;22.15;;;22.50;99.90;;;;;;5068705;28;20044;-60
2023/08/18 12:05:33;;;;;;;35.80;21.08;;;22.60;99.90;;;;;;5069738;28;20379;-58
2023/08/18 12:08:01;;;;;;;26.88;18.05;;;22.80;99.90;;;;;;5051117;28;20483;-58
2023/08/18 12:10:28;;;;;;;24.65;18.45;;;23.00;99.90;;;;;;5051572;28;20127;-58
2023/08/18 12:12:56;;;;;;;29.40;17.52;;;23.20;99.90;;;;;;5034038;28;20045;-60
2023/08/18 12:15:24;;;;;;;26.00;19.10;;;23.30;99.90;;;;;;5068803;28;20082;-60
2023/08/18 12:17:52;;;;;;;34.60;20.15;;;23.40;99.90;;;;;;5051099;28;20088;-59
2023/08/18 12:20:19;;;;;;;26.73;20.45;;;23.50;99.90;;;;;;5065571;28;20051;-58
2023/08/18 12:22:47;;;;;;;35.72;20.70;;;23.50;99.90;;;;;;5049326;28;20727;-59
2023/08/18 12:25:14;;;;;;;36.15;20.45;;;23.50;99.90;;;;;;5062690;28;20226;-60
2023/08/18 12:27:43;;;;;;;32.95;21.10;;;23.50;99.90;;;;;;5061518;28;20040;-58
2023/08/18 12:30:10;;;;;;;25.52;19.23;;;23.50;99.90;;;;;;5067126;28;20102;-57
2023/08/18 12:32:37;;;;;;;29.20;18.83;;;23.70;99.90;;;;;;5067158;28;20041;-59